In Rescue
 
Open Full Screen Window  High Contrast Mode
September 19, 2019 4:50 PM EDT
Weather Information
Wind Direction
  ---
Wind Speed
  00 kt (0 mph)
Wind Gust
  00 kt (0 mph)
Altimeter
30.31 in
Visibility
10 SM
Temperature
21° C
70° F
Dewpoint
04° C
39° F
Humidity
33%
1hr Rain Fall
00.00 in.
24hr Rain Fall
00.00 in.
Sky Condition
Clear
VFR

METAR KUKT 192050Z AUTO 00000KT 10SM CLR 21/04 A3031 RMK A01

FAA Disclaimer: The data displayed is for advisory purposes only and is not to be used for flight planning or operations.